sensor_id;sensor_type;location;lat;lon;timestamp;P1;durP1;ratioP1;P2;durP2;ratioP2
55312;SDS011;46892;45.668;11.756;2023-08-07T00:01:56;1.90;;;0.90;;
55312;SDS011;46892;45.668;11.756;2023-08-07T00:04:22;2.73;;;0.60;;
55312;SDS011;46892;45.668;11.756;2023-08-07T00:06:48;2.40;;;0.77;;
55312;SDS011;46892;45.668;11.756;2023-08-07T00:09:14;2.93;;;0.60;;
55312;SDS011;46892;45.668;11.756;2023-08-07T00:11:39;2.07;;;0.80;;
55312;SDS011;46892;45.668;11.756;2023-08-07T00:14:05;1.17;;;0.67;;
55312;SDS011;46892;45.668;11.756;2023-08-07T00:16:31;1.53;;;0.90;;
55312;SDS011;46892;45.668;11.756;2023-08-07T00:18:56;3.80;;;0.80;;
55312;SDS011;46892;45.668;11.756;2023-08-07T00:21:23;2.97;;;0.90;;
55312;SDS011;46892;45.668;11.756;2023-08-07T00:23:49;1.77;;;0.87;;
55312;SDS011;46892;45.668;11.756;2023-08-07T00:26:15;1.17;;;0.60;;
55312;SDS011;46892;45.668;11.756;2023-08-07T00:28:41;0.80;;;0.57;;
55312;SDS011;46892;45.668;11.756;2023-08-07T00:31:07;2.40;;;0.63;;
55312;SDS011;46892;45.668;11.756;2023-08-07T00:33:32;1.50;;;0.60;;
55312;SDS011;46892;45.668;11.756;2023-08-07T00:35:58;0.80;;;0.60;;
55312;SDS011;46892;45.668;11.756;2023-08-07T00:38:24;0.60;;;0.50;;
55312;SDS011;46892;45.668;11.756;2023-08-07T00:40:49;3.60;;;0.70;;
55312;SDS011;46892;45.668;11.756;2023-08-07T00:43:15;3.00;;;0.90;;
55312;SDS011;46892;45.668;11.756;2023-08-07T00:45:46;0.77;;;0.50;;
55312;SDS011;46892;45.668;11.756;2023-08-07T00:48:13;1.40;;;0.73;;
55312;SDS011;46892;45.668;11.756;2023-08-07T00:50:41;1.83;;;0.60;;
55312;SDS011;46892;45.668;11.756;2023-08-07T00:53:08;1.33;;;0.60;;
55312;SDS011;46892;45.668;11.756;2023-08-07T00:55:34;3.37;;;0.90;;
55312;SDS011;46892;45.668;11.756;2023-08-07T00:58:00;1.90;;;0.70;;
55312;SDS011;46892;45.668;11.756;2023-08-07T01:00:29;2.03;;;0.77;;
55312;SDS011;46892;45.668;11.756;2023-08-07T01:02:57;2.20;;;0.50;;
55312;SDS011;46892;45.668;11.756;2023-08-07T01:05:25;3.27;;;0.67;;
55312;SDS011;46892;45.668;11.756;2023-08-07T01:07:51;1.97;;;0.60;;
55312;SDS011;46892;45.668;11.756;2023-08-07T01:10:22;2.07;;;0.70;;
55312;SDS011;46892;45.668;11.756;2023-08-07T01:13:20;4.10;;;0.70;;
55312;SDS011;46892;45.668;11.756;2023-08-07T01:16:01;1.10;;;0.57;;
55312;SDS011;46892;45.668;11.756;2023-08-07T01:18:32;4.10;;;0.87;;
55312;SDS011;46892;45.668;11.756;2023-08-07T01:20:59;2.87;;;0.70;;
55312;SDS011;46892;45.668;11.756;2023-08-07T01:23:25;1.03;;;0.70;;
55312;SDS011;46892;45.668;11.756;2023-08-07T01:25:51;2.10;;;0.60;;
55312;SDS011;46892;45.668;11.756;2023-08-07T01:28:19;1.17;;;0.63;;
55312;SDS011;46892;45.668;11.756;2023-08-07T01:30:54;3.20;;;0.80;;
55312;SDS011;46892;45.668;11.756;2023-08-07T01:33:26;5.30;;;1.60;;
55312;SDS011;46892;45.668;11.756;2023-08-07T01:35:57;1.93;;;0.83;;
55312;SDS011;46892;45.668;11.756;2023-08-07T01:38:25;1.80;;;0.80;;
55312;SDS011;46892;45.668;11.756;2023-08-07T01:40:52;1.37;;;0.73;;
55312;SDS011;46892;45.668;11.756;2023-08-07T01:43:18;2.73;;;0.70;;
55312;SDS011;46892;45.668;11.756;2023-08-07T01:45:44;1.57;;;0.73;;
55312;SDS011;46892;45.668;11.756;2023-08-07T01:48:10;1.03;;;0.63;;
55312;SDS011;46892;45.668;11.756;2023-08-07T01:50:38;2.20;;;0.80;;
55312;SDS011;46892;45.668;11.756;2023-08-07T01:53:04;1.43;;;0.63;;
55312;SDS011;46892;45.668;11.756;2023-08-07T01:55:30;1.03;;;0.67;;
55312;SDS011;46892;45.668;11.756;2023-08-07T01:57:56;2.43;;;0.70;;
55312;SDS011;46892;45.668;11.756;2023-08-07T02:00:22;1.03;;;0.50;;
55312;SDS011;46892;45.668;11.756;2023-08-07T02:02:48;0.90;;;0.70;;
55312;SDS011;46892;45.668;11.756;2023-08-07T02:05:14;0.60;;;0.60;;
55312;SDS011;46892;45.668;11.756;2023-08-07T02:07:40;1.27;;;0.53;;
55312;SDS011;46892;45.668;11.756;2023-08-07T02:10:06;1.60;;;0.70;;
55312;SDS011;46892;45.668;11.756;2023-08-07T02:12:33;0.77;;;0.47;;
55312;SDS011;46892;45.668;11.756;2023-08-07T02:14:58;3.13;;;0.70;;
55312;SDS011;46892;45.668;11.756;2023-08-07T02:17:25;1.80;;;0.50;;
55312;SDS011;46892;45.668;11.756;2023-08-07T02:19:55;1.10;;;0.40;;
55312;SDS011;46892;45.668;11.756;2023-08-07T02:22:21;2.23;;;0.50;;
55312;SDS011;46892;45.668;11.756;2023-08-07T02:24:47;1.30;;;0.50;;
55312;SDS011;46892;45.668;11.756;2023-08-07T02:27:13;1.63;;;0.50;;
55312;SDS011;46892;45.668;11.756;2023-08-07T02:29:38;2.13;;;0.50;;
55312;SDS011;46892;45.668;11.756;2023-08-07T02:32:04;1.37;;;0.50;;
55312;SDS011;46892;45.668;11.756;2023-08-07T02:34:30;1.30;;;0.73;;
55312;SDS011;46892;45.668;11.756;2023-08-07T02:36:56;2.57;;;0.80;;
55312;SDS011;46892;45.668;11.756;2023-08-07T02:39:22;2.73;;;0.70;;
55312;SDS011;46892;45.668;11.756;2023-08-07T02:41:48;0.60;;;0.40;;
55312;SDS011;46892;45.668;11.756;2023-08-07T02:44:14;1.37;;;0.50;;
55312;SDS011;46892;45.668;11.756;2023-08-07T02:46:42;2.43;;;0.47;;
55312;SDS011;46892;45.668;11.756;2023-08-07T02:49:08;1.00;;;0.70;;
55312;SDS011;46892;45.668;11.756;2023-08-07T02:51:34;2.67;;;0.60;;
55312;SDS011;46892;45.668;11.756;2023-08-07T02:53:59;1.13;;;0.67;;
55312;SDS011;46892;45.668;11.756;2023-08-07T02:56:25;0.77;;;0.40;;
55312;SDS011;46892;45.668;11.756;2023-08-07T02:58:51;3.00;;;0.77;;
55312;SDS011;46892;45.668;11.756;2023-08-07T03:01:17;3.03;;;0.53;;
55312;SDS011;46892;45.668;11.756;2023-08-07T03:03:42;4.67;;;0.90;;
55312;SDS011;46892;45.668;11.756;2023-08-07T03:06:08;1.03;;;0.50;;
55312;SDS011;46892;45.668;11.756;2023-08-07T03:08:34;2.93;;;0.53;;
55312;SDS011;46892;45.668;11.756;2023-08-07T03:11:00;3.40;;;0.70;;
55312;SDS011;46892;45.668;11.756;2023-08-07T03:13:26;7.80;;;0.90;;
55312;SDS011;46892;45.668;11.756;2023-08-07T03:15:58;1.63;;;0.57;;
55312;SDS011;46892;45.668;11.756;2023-08-07T03:18:25;1.73;;;0.70;;
55312;SDS011;46892;45.668;11.756;2023-08-07T03:20:51;2.73;;;0.50;;
55312;SDS011;46892;45.668;11.756;2023-08-07T03:23:17;0.87;;;0.50;;
55312;SDS011;46892;45.668;11.756;2023-08-07T03:25:43;6.37;;;0.80;;
55312;SDS011;46892;45.668;11.756;2023-08-07T03:28:09;1.87;;;0.53;;
55312;SDS011;46892;45.668;11.756;2023-08-07T03:30:34;1.07;;;0.50;;
55312;SDS011;46892;45.668;11.756;2023-08-07T03:33:00;1.67;;;0.60;;
55312;SDS011;46892;45.668;11.756;2023-08-07T03:35:26;1.30;;;0.70;;
55312;SDS011;46892;45.668;11.756;2023-08-07T03:37:52;1.33;;;0.80;;
55312;SDS011;46892;45.668;11.756;2023-08-07T03:40:17;2.37;;;1.00;;
55312;SDS011;46892;45.668;11.756;2023-08-07T03:42:43;2.10;;;0.93;;
55312;SDS011;46892;45.668;11.756;2023-08-07T03:45:09;1.63;;;0.70;;
55312;SDS011;46892;45.668;11.756;2023-08-07T03:47:35;3.73;;;0.93;;
55312;SDS011;46892;45.668;11.756;2023-08-07T03:50:01;2.00;;;0.80;;
55312;SDS011;46892;45.668;11.756;2023-08-07T03:52:26;2.50;;;1.00;;
55312;SDS011;46892;45.668;11.756;2023-08-07T03:54:52;3.47;;;0.97;;
55312;SDS011;46892;45.668;11.756;2023-08-07T03:57:18;2.60;;;0.90;;
55312;SDS011;46892;45.668;11.756;2023-08-07T03:59:43;2.13;;;1.10;;
55312;SDS011;46892;45.668;11.756;2023-08-07T04:02:09;2.53;;;1.30;;
55312;SDS011;46892;45.668;11.756;2023-08-07T04:04:35;1.80;;;1.03;;
55312;SDS011;46892;45.668;11.756;2023-08-07T04:07:01;2.80;;;1.50;;
55312;SDS011;46892;45.668;11.756;2023-08-07T04:09:26;2.93;;;1.33;;
55312;SDS011;46892;45.668;11.756;2023-08-07T04:11:52;1.30;;;0.87;;
55312;SDS011;46892;45.668;11.756;2023-08-07T04:14:19;2.63;;;1.00;;
55312;SDS011;46892;45.668;11.756;2023-08-07T04:16:44;3.83;;;1.10;;
55312;SDS011;46892;45.668;11.756;2023-08-07T04:19:10;1.50;;;1.03;;
55312;SDS011;46892;45.668;11.756;2023-08-07T04:21:36;5.27;;;2.60;;
55312;SDS011;46892;45.668;11.756;2023-08-07T04:24:01;2.17;;;1.20;;
55312;SDS011;46892;45.668;11.756;2023-08-07T04:26:35;4.90;;;1.70;;
55312;SDS011;46892;45.668;11.756;2023-08-07T04:29:01;2.30;;;1.57;;
55312;SDS011;46892;45.668;11.756;2023-08-07T04:31:27;3.47;;;1.47;;
55312;SDS011;46892;45.668;11.756;2023-08-07T04:33:55;2.20;;;1.00;;
55312;SDS011;46892;45.668;11.756;2023-08-07T04:36:22;4.37;;;1.30;;
55312;SDS011;46892;45.668;11.756;2023-08-07T04:38:47;1.77;;;1.30;;
55312;SDS011;46892;45.668;11.756;2023-08-07T04:41:14;4.07;;;1.20;;
55312;SDS011;46892;45.668;11.756;2023-08-07T04:43:40;3.37;;;1.40;;
55312;SDS011;46892;45.668;11.756;2023-08-07T04:46:07;1.50;;;1.17;;
55312;SDS011;46892;45.668;11.756;2023-08-07T04:48:34;2.20;;;1.20;;
55312;SDS011;46892;45.668;11.756;2023-08-07T04:51:00;3.40;;;1.20;;
55312;SDS011;46892;45.668;11.756;2023-08-07T04:53:26;4.17;;;1.17;;
55312;SDS011;46892;45.668;11.756;2023-08-07T04:55:52;2.37;;;1.00;;
55312;SDS011;46892;45.668;11.756;2023-08-07T04:58:18;2.87;;;1.03;;
55312;SDS011;46892;45.668;11.756;2023-08-07T05:00:44;2.77;;;0.97;;
55312;SDS011;46892;45.668;11.756;2023-08-07T05:03:09;2.77;;;1.33;;
55312;SDS011;46892;45.668;11.756;2023-08-07T05:05:35;3.30;;;1.50;;
55312;SDS011;46892;45.668;11.756;2023-08-07T05:08:01;4.80;;;1.70;;
55312;SDS011;46892;45.668;11.756;2023-08-07T05:10:27;3.53;;;2.13;;
55312;SDS011;46892;45.668;11.756;2023-08-07T05:12:52;1.90;;;1.57;;
55312;SDS011;46892;45.668;11.756;2023-08-07T05:15:20;4.00;;;1.53;;
55312;SDS011;46892;45.668;11.756;2023-08-07T05:17:50;2.38;;;1.58;;
55312;SDS011;46892;45.668;11.756;2023-08-07T05:20:16;2.80;;;1.47;;
55312;SDS011;46892;45.668;11.756;2023-08-07T05:22:43;2.73;;;1.57;;
55312;SDS011;46892;45.668;11.756;2023-08-07T05:25:09;1.63;;;1.23;;
55312;SDS011;46892;45.668;11.756;2023-08-07T05:27:36;2.70;;;1.20;;
55312;SDS011;46892;45.668;11.756;2023-08-07T05:30:02;3.33;;;1.30;;
55312;SDS011;46892;45.668;11.756;2023-08-07T05:32:29;3.50;;;1.40;;
55312;SDS011;46892;45.668;11.756;2023-08-07T05:34:55;2.03;;;1.53;;
55312;SDS011;46892;45.668;11.756;2023-08-07T05:37:20;3.50;;;1.00;;
55312;SDS011;46892;45.668;11.756;2023-08-07T05:39:46;2.63;;;1.30;;
55312;SDS011;46892;45.668;11.756;2023-08-07T05:42:12;3.90;;;1.37;;
55312;SDS011;46892;45.668;11.756;2023-08-07T05:44:38;3.03;;;1.00;;
55312;SDS011;46892;45.668;11.756;2023-08-07T05:47:04;1.27;;;0.87;;
55312;SDS011;46892;45.668;11.756;2023-08-07T05:49:31;1.87;;;0.90;;
55312;SDS011;46892;45.668;11.756;2023-08-07T05:51:57;4.53;;;0.90;;
55312;SDS011;46892;45.668;11.756;2023-08-07T05:54:22;2.67;;;0.90;;
55312;SDS011;46892;45.668;11.756;2023-08-07T05:56:48;2.53;;;0.83;;
55312;SDS011;46892;45.668;11.756;2023-08-07T05:59:14;1.53;;;0.80;;
55312;SDS011;46892;45.668;11.756;2023-08-07T06:01:40;3.60;;;0.87;;
55312;SDS011;46892;45.668;11.756;2023-08-07T06:04:06;1.50;;;0.73;;
55312;SDS011;46892;45.668;11.756;2023-08-07T06:06:32;2.83;;;0.70;;
55312;SDS011;46892;45.668;11.756;2023-08-07T06:09:00;1.77;;;0.70;;
55312;SDS011;46892;45.668;11.756;2023-08-07T06:11:27;2.20;;;0.67;;
55312;SDS011;46892;45.668;11.756;2023-08-07T06:13:53;1.00;;;0.50;;
55312;SDS011;46892;45.668;11.756;2023-08-07T06:16:19;0.73;;;0.50;;
55312;SDS011;46892;45.668;11.756;2023-08-07T06:18:44;4.40;;;0.70;;
55312;SDS011;46892;45.668;11.756;2023-08-07T06:21:10;1.80;;;0.50;;
55312;SDS011;46892;45.668;11.756;2023-08-07T06:23:36;2.13;;;0.70;;
55312;SDS011;46892;45.668;11.756;2023-08-07T06:26:02;2.20;;;0.70;;
55312;SDS011;46892;45.668;11.756;2023-08-07T06:31:08;1.47;;;0.60;;
55312;SDS011;46892;45.668;11.756;2023-08-07T06:33:36;1.13;;;0.50;;
55312;SDS011;46892;45.668;11.756;2023-08-07T06:36:02;2.00;;;0.60;;
55312;SDS011;46892;45.668;11.756;2023-08-07T06:38:29;1.20;;;0.50;;
55312;SDS011;46892;45.668;11.756;2023-08-07T06:40:55;1.17;;;0.57;;
55312;SDS011;46892;45.668;11.756;2023-08-07T06:43:21;0.90;;;0.30;;
55312;SDS011;46892;45.668;11.756;2023-08-07T06:45:49;1.70;;;0.60;;
55312;SDS011;46892;45.668;11.756;2023-08-07T06:48:15;0.70;;;0.53;;
55312;SDS011;46892;45.668;11.756;2023-08-07T06:50:41;1.37;;;0.60;;
55312;SDS011;46892;45.668;11.756;2023-08-07T06:53:06;1.83;;;0.60;;
55312;SDS011;46892;45.668;11.756;2023-08-07T06:55:32;3.10;;;0.70;;
55312;SDS011;46892;45.668;11.756;2023-08-07T06:57:58;3.40;;;0.80;;
55312;SDS011;46892;45.668;11.756;2023-08-07T07:00:24;2.38;;;1.10;;
55312;SDS011;46892;45.668;11.756;2023-08-07T07:02:50;3.27;;;1.00;;
55312;SDS011;46892;45.668;11.756;2023-08-07T07:05:17;3.13;;;0.80;;
55312;SDS011;46892;45.668;11.756;2023-08-07T07:07:43;2.27;;;1.13;;
55312;SDS011;46892;45.668;11.756;2023-08-07T07:10:08;2.20;;;0.50;;
55312;SDS011;46892;45.668;11.756;2023-08-07T07:12:34;1.02;;;0.70;;
55312;SDS011;46892;45.668;11.756;2023-08-07T07:15:01;1.75;;;0.73;;
55312;SDS011;46892;45.668;11.756;2023-08-07T07:17:27;1.10;;;0.70;;
55312;SDS011;46892;45.668;11.756;2023-08-07T07:19:53;0.97;;;0.63;;
55312;SDS011;46892;45.668;11.756;2023-08-07T07:22:18;1.27;;;0.52;;
55312;SDS011;46892;45.668;11.756;2023-08-07T07:24:44;0.50;;;0.28;;
55312;SDS011;46892;45.668;11.756;2023-08-07T07:27:10;1.13;;;0.40;;
55312;SDS011;46892;45.668;11.756;2023-08-07T07:29:35;2.35;;;0.30;;
55312;SDS011;46892;45.668;11.756;2023-08-07T07:32:02;3.10;;;0.70;;
55312;SDS011;46892;45.668;11.756;2023-08-07T07:34:27;1.52;;;0.50;;
55312;SDS011;46892;45.668;11.756;2023-08-07T07:36:53;2.97;;;0.38;;
55312;SDS011;46892;45.668;11.756;2023-08-07T07:39:19;1.27;;;0.60;;
55312;SDS011;46892;45.668;11.756;2023-08-07T07:41:45;1.65;;;0.50;;
55312;SDS011;46892;45.668;11.756;2023-08-07T07:44:11;0.63;;;0.30;;
55312;SDS011;46892;45.668;11.756;2023-08-07T07:46:38;3.05;;;0.63;;
55312;SDS011;46892;45.668;11.756;2023-08-07T07:49:03;0.63;;;0.40;;
55312;SDS011;46892;45.668;11.756;2023-08-07T07:51:30;3.28;;;0.60;;
55312;SDS011;46892;45.668;11.756;2023-08-07T07:53:57;1.65;;;0.50;;
55312;SDS011;46892;45.668;11.756;2023-08-07T07:56:23;1.65;;;0.50;;
55312;SDS011;46892;45.668;11.756;2023-08-07T07:58:49;1.95;;;0.55;;
55312;SDS011;46892;45.668;11.756;2023-08-07T08:01:14;0.98;;;0.50;;
55312;SDS011;46892;45.668;11.756;2023-08-07T08:03:40;3.22;;;0.80;;
55312;SDS011;46892;45.668;11.756;2023-08-07T08:06:08;2.50;;;0.68;;
55312;SDS011;46892;45.668;11.756;2023-08-07T08:08:34;0.90;;;0.52;;
55312;SDS011;46892;45.668;11.756;2023-08-07T08:11:00;1.73;;;0.65;;
55312;SDS011;46892;45.668;11.756;2023-08-07T08:13:26;0.85;;;0.57;;
55312;SDS011;46892;45.668;11.756;2023-08-07T08:15:51;3.30;;;0.65;;
55312;SDS011;46892;45.668;11.756;2023-08-07T08:18:17;1.75;;;0.60;;
55312;SDS011;46892;45.668;11.756;2023-08-07T08:20:43;4.78;;;0.70;;
55312;SDS011;46892;45.668;11.756;2023-08-07T08:23:09;1.45;;;0.65;;
55312;SDS011;46892;45.668;11.756;2023-08-07T08:25:34;3.70;;;0.50;;
55312;SDS011;46892;45.668;11.756;2023-08-07T08:28:00;1.33;;;0.73;;
55312;SDS011;46892;45.668;11.756;2023-08-07T08:30:26;3.30;;;0.52;;
55312;SDS011;46892;45.668;11.756;2023-08-07T08:32:52;1.67;;;0.73;;
55312;SDS011;46892;45.668;11.756;2023-08-07T08:35:18;1.08;;;0.63;;
55312;SDS011;46892;45.668;11.756;2023-08-07T08:37:44;0.77;;;0.38;;
55312;SDS011;46892;45.668;11.756;2023-08-07T08:40:11;2.72;;;0.50;;
55312;SDS011;46892;45.668;11.756;2023-08-07T08:42:44;1.15;;;0.50;;
55312;SDS011;46892;45.668;11.756;2023-08-07T08:45:11;0.85;;;0.40;;
55312;SDS011;46892;45.668;11.756;2023-08-07T08:47:40;3.15;;;0.45;;
55312;SDS011;46892;45.668;11.756;2023-08-07T08:50:08;0.88;;;0.40;;
55312;SDS011;46892;45.668;11.756;2023-08-07T08:52:37;1.05;;;0.40;;
55312;SDS011;46892;45.668;11.756;2023-08-07T08:55:05;1.57;;;0.60;;
55312;SDS011;46892;45.668;11.756;2023-08-07T08:57:32;4.78;;;0.50;;
55312;SDS011;46892;45.668;11.756;2023-08-07T08:59:59;1.42;;;0.30;;
55312;SDS011;46892;45.668;11.756;2023-08-07T09:02:27;1.60;;;0.40;;
55312;SDS011;46892;45.668;11.756;2023-08-07T09:04:53;1.20;;;0.40;;
55312;SDS011;46892;45.668;11.756;2023-08-07T09:07:19;1.77;;;0.52;;
55312;SDS011;46892;45.668;11.756;2023-08-07T09:09:45;1.05;;;0.50;;
55312;SDS011;46892;45.668;11.756;2023-08-07T09:12:15;1.42;;;0.45;;
55312;SDS011;46892;45.668;11.756;2023-08-07T09:14:45;0.93;;;0.47;;
55312;SDS011;46892;45.668;11.756;2023-08-07T09:17:18;0.52;;;0.40;;
55312;SDS011;46892;45.668;11.756;2023-08-07T09:19:46;1.50;;;0.50;;
55312;SDS011;46892;45.668;11.756;2023-08-07T09:22:11;1.50;;;0.40;;
55312;SDS011;46892;45.668;11.756;2023-08-07T09:24:37;1.35;;;0.52;;
55312;SDS011;46892;45.668;11.756;2023-08-07T09:27:03;1.30;;;0.45;;
55312;SDS011;46892;45.668;11.756;2023-08-07T09:29:32;1.63;;;0.65;;
55312;SDS011;46892;45.668;11.756;2023-08-07T09:32:06;2.35;;;0.52;;
55312;SDS011;46892;45.668;11.756;2023-08-07T09:34:33;0.60;;;0.45;;
55312;SDS011;46892;45.668;11.756;2023-08-07T09:36:59;0.93;;;0.50;;
55312;SDS011;46892;45.668;11.756;2023-08-07T09:39:24;0.95;;;0.50;;
55312;SDS011;46892;45.668;11.756;2023-08-07T09:41:50;0.65;;;0.40;;
55312;SDS011;46892;45.668;11.756;2023-08-07T09:44:17;1.05;;;0.63;;
55312;SDS011;46892;45.668;11.756;2023-08-07T09:46:43;0.68;;;0.32;;
55312;SDS011;46892;45.668;11.756;2023-08-07T09:49:09;0.52;;;0.30;;
55312;SDS011;46892;45.668;11.756;2023-08-07T09:51:44;1.30;;;0.50;;
55312;SDS011;46892;45.668;11.756;2023-08-07T09:54:11;0.85;;;0.40;;
55312;SDS011;46892;45.668;11.756;2023-08-07T09:56:40;0.50;;;0.40;;
55312;SDS011;46892;45.668;11.756;2023-08-07T09:59:06;1.98;;;0.40;;
55312;SDS011;46892;45.668;11.756;2023-08-07T10:01:33;0.95;;;0.40;;
55312;SDS011;46892;45.668;11.756;2023-08-07T10:06:29;1.65;;;0.50;;
55312;SDS011;46892;45.668;11.756;2023-08-07T10:08:55;1.10;;;0.30;;
55312;SDS011;46892;45.668;11.756;2023-08-07T10:11:23;0.80;;;0.40;;
55312;SDS011;46892;45.668;11.756;2023-08-07T10:13:49;0.80;;;0.60;;
55312;SDS011;46892;45.668;11.756;2023-08-07T10:16:15;0.70;;;0.50;;
55312;SDS011;46892;45.668;11.756;2023-08-07T10:18:41;2.78;;;0.90;;
55312;SDS011;46892;45.668;11.756;2023-08-07T10:21:07;1.10;;;0.68;;
55312;SDS011;46892;45.668;11.756;2023-08-07T10:23:34;1.83;;;0.85;;
55312;SDS011;46892;45.668;11.756;2023-08-07T10:26:02;1.60;;;0.60;;
55312;SDS011;46892;45.668;11.756;2023-08-07T10:28:31;0.93;;;0.70;;
55312;SDS011;46892;45.668;11.756;2023-08-07T10:31:02;0.85;;;0.60;;
55312;SDS011;46892;45.668;11.756;2023-08-07T10:33:30;1.38;;;0.70;;
55312;SDS011;46892;45.668;11.756;2023-08-07T10:35:57;0.95;;;0.55;;
55312;SDS011;46892;45.668;11.756;2023-08-07T10:38:27;0.85;;;0.40;;
55312;SDS011;46892;45.668;11.756;2023-08-07T10:41:00;2.03;;;0.57;;
55312;SDS011;46892;45.668;11.756;2023-08-07T10:43:28;0.88;;;0.50;;
55312;SDS011;46892;45.668;11.756;2023-08-07T10:46:00;4.32;;;0.60;;
55312;SDS011;46892;45.668;11.756;2023-08-07T10:48:29;4.47;;;0.50;;
55312;SDS011;46892;45.668;11.756;2023-08-07T10:55:57;1.38;;;0.60;;
55312;SDS011;46892;45.668;11.756;2023-08-07T10:58:29;2.20;;;0.70;;
55312;SDS011;46892;45.668;11.756;2023-08-07T11:03:54;0.60;;;0.40;;
55312;SDS011;46892;45.668;11.756;2023-08-07T11:06:24;0.52;;;0.30;;
55312;SDS011;46892;45.668;11.756;2023-08-07T11:08:53;0.20;;;0.20;;
55312;SDS011;46892;45.668;11.756;2023-08-07T11:11:19;0.57;;;0.30;;
55312;SDS011;46892;45.668;11.756;2023-08-07T11:13:45;0.95;;;0.30;;
55312;SDS011;46892;45.668;11.756;2023-08-07T11:16:11;0.90;;;0.30;;
55312;SDS011;46892;45.668;11.756;2023-08-07T11:18:37;0.50;;;0.25;;
55312;SDS011;46892;45.668;11.756;2023-08-07T11:21:07;0.30;;;0.30;;
55312;SDS011;46892;45.668;11.756;2023-08-07T11:23:34;0.70;;;0.20;;
55312;SDS011;46892;45.668;11.756;2023-08-07T11:26:00;1.58;;;0.30;;
55312;SDS011;46892;45.668;11.756;2023-08-07T11:28:28;0.30;;;0.30;;
55312;SDS011;46892;45.668;11.756;2023-08-07T11:30:54;1.33;;;0.30;;
55312;SDS011;46892;45.668;11.756;2023-08-07T11:33:21;0.50;;;0.40;;
55312;SDS011;46892;45.668;11.756;2023-08-07T11:35:48;0.60;;;0.40;;
55312;SDS011;46892;45.668;11.756;2023-08-07T11:38:28;0.43;;;0.20;;
55312;SDS011;46892;45.668;11.756;2023-08-07T11:40:56;0.40;;;0.22;;
55312;SDS011;46892;45.668;11.756;2023-08-07T11:43:35;0.38;;;0.30;;
55312;SDS011;46892;45.668;11.756;2023-08-07T11:48:29;1.35;;;0.30;;
55312;SDS011;46892;45.668;11.756;2023-08-07T11:50:57;0.40;;;0.30;;
55312;SDS011;46892;45.668;11.756;2023-08-07T11:53:30;2.10;;;0.55;;
55312;SDS011;46892;45.668;11.756;2023-08-07T11:56:01;1.10;;;0.20;;
55312;SDS011;46892;45.668;11.756;2023-08-07T12:01:04;1.30;;;0.50;;
55312;SDS011;46892;45.668;11.756;2023-08-07T12:03:32;0.35;;;0.30;;
55312;SDS011;46892;45.668;11.756;2023-08-07T12:06:02;1.17;;;0.30;;
55312;SDS011;46892;45.668;11.756;2023-08-07T12:08:36;0.68;;;0.20;;
55312;SDS011;46892;45.668;11.756;2023-08-07T12:11:07;0.28;;;0.28;;
55312;SDS011;46892;45.668;11.756;2023-08-07T12:13:41;0.88;;;0.40;;
55312;SDS011;46892;45.668;11.756;2023-08-07T12:16:08;1.50;;;0.40;;
55312;SDS011;46892;45.668;11.756;2023-08-07T12:18:34;1.13;;;0.35;;
55312;SDS011;46892;45.668;11.756;2023-08-07T12:21:07;0.55;;;0.30;;
55312;SDS011;46892;45.668;11.756;2023-08-07T12:23:33;0.55;;;0.25;;
55312;SDS011;46892;45.668;11.756;2023-08-07T12:26:00;0.40;;;0.38;;
55312;SDS011;46892;45.668;11.756;2023-08-07T12:28:26;0.63;;;0.30;;
55312;SDS011;46892;45.668;11.756;2023-08-07T12:30:52;0.80;;;0.40;;
55312;SDS011;46892;45.668;11.756;2023-08-07T12:33:17;0.63;;;0.30;;
55312;SDS011;46892;45.668;11.756;2023-08-07T12:35:43;0.95;;;0.35;;
55312;SDS011;46892;45.668;11.756;2023-08-07T12:38:09;0.75;;;0.38;;
55312;SDS011;46892;45.668;11.756;2023-08-07T12:40:36;0.50;;;0.30;;
55312;SDS011;46892;45.668;11.756;2023-08-07T12:43:02;0.55;;;0.45;;
55312;SDS011;46892;45.668;11.756;2023-08-07T12:45:31;0.35;;;0.25;;
55312;SDS011;46892;45.668;11.756;2023-08-07T12:47:58;2.42;;;0.40;;
55312;SDS011;46892;45.668;11.756;2023-08-07T12:50:24;0.55;;;0.32;;
55312;SDS011;46892;45.668;11.756;2023-08-07T12:52:51;0.45;;;0.40;;
55312;SDS011;46892;45.668;11.756;2023-08-07T12:55:16;0.47;;;0.30;;
55312;SDS011;46892;45.668;11.756;2023-08-07T12:57:43;0.68;;;0.50;;
55312;SDS011;46892;45.668;11.756;2023-08-07T13:00:12;0.75;;;0.40;;
55312;SDS011;46892;45.668;11.756;2023-08-07T13:02:41;1.75;;;0.40;;
55312;SDS011;46892;45.668;11.756;2023-08-07T13:05:09;0.80;;;0.40;;
55312;SDS011;46892;45.668;11.756;2023-08-07T13:07:35;1.27;;;0.30;;
55312;SDS011;46892;45.668;11.756;2023-08-07T13:10:03;0.30;;;0.30;;
55312;SDS011;46892;45.668;11.756;2023-08-07T13:12:31;0.68;;;0.30;;
55312;SDS011;46892;45.668;11.756;2023-08-07T13:15:00;2.35;;;0.43;;
55312;SDS011;46892;45.668;11.756;2023-08-07T13:17:25;0.73;;;0.40;;
55312;SDS011;46892;45.668;11.756;2023-08-07T13:19:51;0.98;;;0.52;;
55312;SDS011;46892;45.668;11.756;2023-08-07T13:22:17;3.63;;;0.70;;
55312;SDS011;46892;45.668;11.756;2023-08-07T13:24:43;1.20;;;0.50;;
55312;SDS011;46892;45.668;11.756;2023-08-07T13:27:08;1.00;;;0.75;;
55312;SDS011;46892;45.668;11.756;2023-08-07T13:29:34;1.60;;;0.40;;
55312;SDS011;46892;45.668;11.756;2023-08-07T13:32:01;0.82;;;0.40;;
55312;SDS011;46892;45.668;11.756;2023-08-07T13:34:31;0.70;;;0.40;;
55312;SDS011;46892;45.668;11.756;2023-08-07T13:36:57;0.93;;;0.43;;
55312;SDS011;46892;45.668;11.756;2023-08-07T13:39:24;1.27;;;0.50;;
55312;SDS011;46892;45.668;11.756;2023-08-07T13:41:49;1.75;;;0.65;;
55312;SDS011;46892;45.668;11.756;2023-08-07T13:44:15;0.63;;;0.20;;
55312;SDS011;46892;45.668;11.756;2023-08-07T13:46:41;0.30;;;0.25;;
55312;SDS011;46892;45.668;11.756;2023-08-07T13:49:08;0.63;;;0.38;;
55312;SDS011;46892;45.668;11.756;2023-08-07T13:51:34;0.43;;;0.30;;
55312;SDS011;46892;45.668;11.756;2023-08-07T13:54:00;1.42;;;0.85;;
55312;SDS011;46892;45.668;11.756;2023-08-07T13:56:25;0.65;;;0.40;;
55312;SDS011;46892;45.668;11.756;2023-08-07T13:58:51;2.20;;;0.47;;
55312;SDS011;46892;45.668;11.756;2023-08-07T14:01:19;0.70;;;0.40;;
55312;SDS011;46892;45.668;11.756;2023-08-07T14:03:44;0.65;;;0.40;;
55312;SDS011;46892;45.668;11.756;2023-08-07T14:06:10;1.00;;;0.45;;
55312;SDS011;46892;45.668;11.756;2023-08-07T14:08:36;0.70;;;0.38;;
55312;SDS011;46892;45.668;11.756;2023-08-07T14:11:02;5.07;;;0.55;;
55312;SDS011;46892;45.668;11.756;2023-08-07T14:13:28;0.75;;;0.40;;
55312;SDS011;46892;45.668;11.756;2023-08-07T14:15:54;0.63;;;0.40;;
55312;SDS011;46892;45.668;11.756;2023-08-07T14:18:19;0.30;;;0.30;;
55312;SDS011;46892;45.668;11.756;2023-08-07T14:20:45;0.60;;;0.50;;
55312;SDS011;46892;45.668;11.756;2023-08-07T14:23:11;1.23;;;0.40;;
55312;SDS011;46892;45.668;11.756;2023-08-07T14:25:37;0.75;;;0.45;;
55312;SDS011;46892;45.668;11.756;2023-08-07T14:28:03;1.27;;;0.50;;
55312;SDS011;46892;45.668;11.756;2023-08-07T14:30:29;2.42;;;0.63;;
55312;SDS011;46892;45.668;11.756;2023-08-07T14:32:55;0.70;;;0.40;;
55312;SDS011;46892;45.668;11.756;2023-08-07T14:35:20;1.67;;;0.57;;
55312;SDS011;46892;45.668;11.756;2023-08-07T14:37:46;0.52;;;0.40;;
55312;SDS011;46892;45.668;11.756;2023-08-07T14:40:13;0.70;;;0.40;;
55312;SDS011;46892;45.668;11.756;2023-08-07T14:42:39;0.60;;;0.30;;
55312;SDS011;46892;45.668;11.756;2023-08-07T14:45:05;0.98;;;0.35;;
55312;SDS011;46892;45.668;11.756;2023-08-07T14:47:31;1.60;;;0.30;;
55312;SDS011;46892;45.668;11.756;2023-08-07T14:49:57;0.43;;;0.40;;